sensor_id;sensor_type;location;lat;lon;timestamp;pressure;altitude;pressure_sealevel;temperature;humidity
76726;BME280;65651;53.154;17.916;2023-04-01T00:02:02;99001.98;;;9.49;82.43
76726;BME280;65651;53.154;17.916;2023-04-01T00:04:29;98996.86;;;9.53;82.44
76726;BME280;65651;53.154;17.916;2023-04-01T00:06:57;98996.63;;;9.53;82.44
76726;BME280;65651;53.154;17.916;2023-04-01T00:09:24;98993.51;;;9.55;82.49
76726;BME280;65651;53.154;17.916;2023-04-01T00:11:51;98993.88;;;9.60;82.50
76726;BME280;65651;53.154;17.916;2023-04-01T00:14:19;98990.16;;;9.60;82.54
76726;BME280;65651;53.154;17.916;2023-04-01T00:16:46;98991.30;;;9.57;82.52
76726;BME280;65651;53.154;17.916;2023-04-01T00:19:13;98993.52;;;9.58;82.63
76726;BME280;65651;53.154;17.916;2023-04-01T00:21:42;98989.64;;;9.61;82.75
76726;BME280;65651;53.154;17.916;2023-04-01T00:24:09;98991.58;;;9.61;82.66
76726;BME280;65651;53.154;17.916;2023-04-01T00:26:36;98988.37;;;9.59;82.64
76726;BME280;65651;53.154;17.916;2023-04-01T00:29:03;98988.70;;;9.61;82.80
76726;BME280;65651;53.154;17.916;2023-04-01T00:31:31;98991.43;;;9.59;82.64
76726;BME280;65651;53.154;17.916;2023-04-01T00:33:58;98989.21;;;9.58;82.83
76726;BME280;65651;53.154;17.916;2023-04-01T00:36:26;98989.47;;;9.56;82.82
76726;BME280;65651;53.154;17.916;2023-04-01T00:38:53;98987.41;;;9.54;82.94
76726;BME280;65651;53.154;17.916;2023-04-01T00:41:20;98987.98;;;9.52;82.93
76726;BME280;65651;53.154;17.916;2023-04-01T00:43:49;98986.25;;;9.50;82.76
76726;BME280;65651;53.154;17.916;2023-04-01T00:46:18;98987.86;;;9.50;82.83
76726;BME280;65651;53.154;17.916;2023-04-01T00:48:54;98987.58;;;9.51;83.08
76726;BME280;65651;53.154;17.916;2023-04-01T00:51:24;98984.48;;;9.52;83.10
76726;BME280;65651;53.154;17.916;2023-04-01T00:53:55;98984.59;;;9.54;83.17
76726;BME280;65651;53.154;17.916;2023-04-01T00:56:30;98984.92;;;9.54;83.08
76726;BME280;65651;53.154;17.916;2023-04-01T00:59:06;98985.73;;;9.51;83.02
76726;BME280;65651;53.154;17.916;2023-04-01T01:01:36;98981.58;;;9.50;83.22
76726;BME280;65651;53.154;17.916;2023-04-01T01:04:03;98982.17;;;9.48;83.12
76726;BME280;65651;53.154;17.916;2023-04-01T01:06:53;98980.92;;;9.45;83.20
76726;BME280;65651;53.154;17.916;2023-04-01T01:14:57;98980.61;;;9.32;83.49
76726;BME280;65651;53.154;17.916;2023-04-01T01:20:57;98976.54;;;9.26;83.47
76726;BME280;65651;53.154;17.916;2023-04-01T01:23:49;98976.79;;;9.21;83.60
76726;BME280;65651;53.154;17.916;2023-04-01T01:26:53;98976.83;;;9.19;83.74
76726;BME280;65651;53.154;17.916;2023-04-01T01:29:28;98978.63;;;9.15;83.75
76726;BME280;65651;53.154;17.916;2023-04-01T01:37:39;98978.35;;;8.99;84.04
76726;BME280;65651;53.154;17.916;2023-04-01T01:40:10;98985.15;;;8.95;84.10
76726;BME280;65651;53.154;17.916;2023-04-01T01:42:46;98982.35;;;8.91;84.00
76726;BME280;65651;53.154;17.916;2023-04-01T01:45:16;98979.41;;;8.87;84.11
76726;BME280;65651;53.154;17.916;2023-04-01T01:47:48;98978.45;;;8.86;84.15
76726;BME280;65651;53.154;17.916;2023-04-01T01:50:17;98979.70;;;8.84;84.13
76726;BME280;65651;53.154;17.916;2023-04-01T01:52:46;98977.74;;;8.82;84.27
76726;BME280;65651;53.154;17.916;2023-04-01T01:55:37;98978.91;;;8.80;84.34
76726;BME280;65651;53.154;17.916;2023-04-01T01:58:20;98978.25;;;8.78;84.37
76726;BME280;65651;53.154;17.916;2023-04-01T02:00:59;98979.41;;;8.74;84.53
76726;BME280;65651;53.154;17.916;2023-04-01T02:03:34;98984.05;;;8.70;84.46
76726;BME280;65651;53.154;17.916;2023-04-01T02:06:08;98981.50;;;8.64;84.50
76726;BME280;65651;53.154;17.916;2023-04-01T02:08:42;98984.07;;;8.58;84.60
76726;BME280;65651;53.154;17.916;2023-04-01T02:11:13;98982.02;;;8.55;84.45
76726;BME280;65651;53.154;17.916;2023-04-01T02:19:08;98980.86;;;8.48;84.63
76726;BME280;65651;53.154;17.916;2023-04-01T02:21:39;98977.54;;;8.47;84.61
76726;BME280;65651;53.154;17.916;2023-04-01T02:24:11;98978.52;;;8.48;84.59
76726;BME280;65651;53.154;17.916;2023-04-01T02:26:40;98978.88;;;8.49;84.71
76726;BME280;65651;53.154;17.916;2023-04-01T02:29:10;98978.37;;;8.49;84.76
76726;BME280;65651;53.154;17.916;2023-04-01T02:31:39;98978.84;;;8.50;84.84
76726;BME280;65651;53.154;17.916;2023-04-01T02:34:08;98982.46;;;8.48;84.89
76726;BME280;65651;53.154;17.916;2023-04-01T02:36:37;98982.27;;;8.46;84.94
76726;BME280;65651;53.154;17.916;2023-04-01T02:39:06;98982.77;;;8.43;84.87
76726;BME280;65651;53.154;17.916;2023-04-01T02:41:42;98989.13;;;8.41;84.99
76726;BME280;65651;53.154;17.916;2023-04-01T02:44:11;98988.80;;;8.38;85.09
76726;BME280;65651;53.154;17.916;2023-04-01T02:46:39;98994.34;;;8.34;84.76
76726;BME280;65651;53.154;17.916;2023-04-01T02:49:10;98993.51;;;8.31;85.33
76726;BME280;65651;53.154;17.916;2023-04-01T02:51:37;98995.16;;;8.30;85.22
76726;BME280;65651;53.154;17.916;2023-04-01T02:54:04;98996.62;;;8.28;85.14
76726;BME280;65651;53.154;17.916;2023-04-01T02:56:32;99000.04;;;8.27;85.10
76726;BME280;65651;53.154;17.916;2023-04-01T02:58:59;99001.27;;;8.25;85.16
76726;BME280;65651;53.154;17.916;2023-04-01T03:01:27;99004.36;;;8.24;85.14
76726;BME280;65651;53.154;17.916;2023-04-01T03:04:00;99006.00;;;8.24;85.36
76726;BME280;65651;53.154;17.916;2023-04-01T03:06:27;99002.41;;;8.21;85.24
76726;BME280;65651;53.154;17.916;2023-04-01T03:08:55;99003.38;;;8.20;85.27
76726;BME280;65651;53.154;17.916;2023-04-01T03:11:22;99009.63;;;8.19;85.22
76726;BME280;65651;53.154;17.916;2023-04-01T03:13:50;99011.00;;;8.17;85.35
76726;BME280;65651;53.154;17.916;2023-04-01T03:16:17;99015.08;;;8.18;85.57
76726;BME280;65651;53.154;17.916;2023-04-01T03:18:48;99018.07;;;8.17;85.28
76726;BME280;65651;53.154;17.916;2023-04-01T03:21:21;99019.82;;;8.17;85.43
76726;BME280;65651;53.154;17.916;2023-04-01T03:23:49;99018.63;;;8.16;85.52
76726;BME280;65651;53.154;17.916;2023-04-01T03:26:16;99019.58;;;8.16;85.38
76726;BME280;65651;53.154;17.916;2023-04-01T03:28:44;99023.58;;;8.12;85.90
76726;BME280;65651;53.154;17.916;2023-04-01T03:31:11;99019.88;;;8.08;85.50
76726;BME280;65651;53.154;17.916;2023-04-01T03:33:42;99023.30;;;8.05;85.76
76726;BME280;65651;53.154;17.916;2023-04-01T03:36:10;99026.08;;;8.02;85.75
76726;BME280;65651;53.154;17.916;2023-04-01T03:38:44;99024.71;;;7.99;85.74
76726;BME280;65651;53.154;17.916;2023-04-01T03:41:16;99026.42;;;7.96;85.61
76726;BME280;65651;53.154;17.916;2023-04-01T03:43:44;99029.00;;;7.95;85.61
76726;BME280;65651;53.154;17.916;2023-04-01T03:46:17;99031.25;;;7.95;85.81
76726;BME280;65651;53.154;17.916;2023-04-01T03:48:44;99036.21;;;7.93;85.59
76726;BME280;65651;53.154;17.916;2023-04-01T03:51:12;99039.05;;;7.90;86.02
76726;BME280;65651;53.154;17.916;2023-04-01T03:53:39;99041.17;;;7.86;85.87
76726;BME280;65651;53.154;17.916;2023-04-01T03:56:08;99045.83;;;7.80;85.97
76726;BME280;65651;53.154;17.916;2023-04-01T03:58:36;99045.08;;;7.77;86.04
76726;BME280;65651;53.154;17.916;2023-04-01T04:01:13;99054.83;;;7.75;85.89
76726;BME280;65651;53.154;17.916;2023-04-01T04:03:44;99055.52;;;7.70;85.69
76726;BME280;65651;53.154;17.916;2023-04-01T04:06:14;99058.23;;;7.66;86.27
76726;BME280;65651;53.154;17.916;2023-04-01T04:08:41;99057.77;;;7.64;86.03
76726;BME280;65651;53.154;17.916;2023-04-01T04:11:08;99064.20;;;7.63;86.16
76726;BME280;65651;53.154;17.916;2023-04-01T04:13:37;99064.00;;;7.61;86.28
76726;BME280;65651;53.154;17.916;2023-04-01T04:16:05;99069.03;;;7.59;86.36
76726;BME280;65651;53.154;17.916;2023-04-01T04:18:36;99074.27;;;7.57;86.10
76726;BME280;65651;53.154;17.916;2023-04-01T04:21:04;99076.44;;;7.55;86.38
76726;BME280;65651;53.154;17.916;2023-04-01T04:23:32;99078.02;;;7.53;86.43
76726;BME280;65651;53.154;17.916;2023-04-01T04:26:06;99077.29;;;7.53;86.39
76726;BME280;65651;53.154;17.916;2023-04-01T04:28:34;99080.77;;;7.51;86.18
76726;BME280;65651;53.154;17.916;2023-04-01T04:31:02;99080.97;;;7.48;86.33
76726;BME280;65651;53.154;17.916;2023-04-01T04:33:33;99087.73;;;7.45;86.38
76726;BME280;65651;53.154;17.916;2023-04-01T04:36:02;99088.61;;;7.40;86.75
76726;BME280;65651;53.154;17.916;2023-04-01T04:38:29;99091.13;;;7.35;86.61
76726;BME280;65651;53.154;17.916;2023-04-01T04:41:02;99093.61;;;7.32;86.49
76726;BME280;65651;53.154;17.916;2023-04-01T04:43:58;99094.89;;;7.26;86.48
76726;BME280;65651;53.154;17.916;2023-04-01T04:46:28;99101.36;;;7.20;87.23
76726;BME280;65651;53.154;17.916;2023-04-01T04:49:12;99099.73;;;7.15;86.83
76726;BME280;65651;53.154;17.916;2023-04-01T04:51:40;99101.33;;;7.11;86.80
76726;BME280;65651;53.154;17.916;2023-04-01T04:54:08;99104.60;;;7.05;86.94
76726;BME280;65651;53.154;17.916;2023-04-01T04:57:11;99108.15;;;7.00;86.85
76726;BME280;65651;53.154;17.916;2023-04-01T04:59:46;99108.22;;;6.97;87.06
76726;BME280;65651;53.154;17.916;2023-04-01T05:02:18;99104.77;;;6.95;86.99
76726;BME280;65651;53.154;17.916;2023-04-01T05:04:45;99111.77;;;6.94;86.82
76726;BME280;65651;53.154;17.916;2023-04-01T05:07:12;99113.09;;;6.94;87.10
76726;BME280;65651;53.154;17.916;2023-04-01T05:09:40;99118.52;;;6.93;87.07
76726;BME280;65651;53.154;17.916;2023-04-01T05:12:08;99120.06;;;6.92;87.09
76726;BME280;65651;53.154;17.916;2023-04-01T05:14:58;99126.08;;;6.92;86.65
76726;BME280;65651;53.154;17.916;2023-04-01T05:17:26;99129.66;;;6.92;87.11
76726;BME280;65651;53.154;17.916;2023-04-01T05:19:54;99133.86;;;6.91;87.21
76726;BME280;65651;53.154;17.916;2023-04-01T05:22:22;99140.85;;;6.89;87.37
76726;BME280;65651;53.154;17.916;2023-04-01T05:24:51;99141.73;;;6.84;87.19
76726;BME280;65651;53.154;17.916;2023-04-01T05:27:24;99149.30;;;6.78;87.18
76726;BME280;65651;53.154;17.916;2023-04-01T05:29:52;99149.58;;;6.72;87.16
76726;BME280;65651;53.154;17.916;2023-04-01T05:32:51;99150.77;;;6.67;86.98
76726;BME280;65651;53.154;17.916;2023-04-01T05:35:19;99149.46;;;6.64;87.11
76726;BME280;65651;53.154;17.916;2023-04-01T05:37:47;99148.87;;;6.65;87.12
76726;BME280;65651;53.154;17.916;2023-04-01T05:40:18;99152.61;;;6.68;87.13
76726;BME280;65651;53.154;17.916;2023-04-01T05:42:45;99150.77;;;6.71;87.03
76726;BME280;65651;53.154;17.916;2023-04-01T05:45:15;99152.78;;;6.72;87.07
76726;BME280;65651;53.154;17.916;2023-04-01T05:47:49;99155.90;;;6.73;86.90
76726;BME280;65651;53.154;17.916;2023-04-01T05:50:16;99163.03;;;6.74;87.43
76726;BME280;65651;53.154;17.916;2023-04-01T05:52:44;99166.04;;;6.75;87.19
76726;BME280;65651;53.154;17.916;2023-04-01T05:55:12;99171.84;;;6.70;87.02
76726;BME280;65651;53.154;17.916;2023-04-01T05:57:40;99170.94;;;6.65;87.01
76726;BME280;65651;53.154;17.916;2023-04-01T06:00:08;99169.83;;;6.64;87.19
76726;BME280;65651;53.154;17.916;2023-04-01T06:02:42;99174.84;;;6.64;87.13
76726;BME280;65651;53.154;17.916;2023-04-01T06:07:38;99178.59;;;6.62;86.88
76726;BME280;65651;53.154;17.916;2023-04-01T06:10:16;99181.53;;;6.63;86.78
76726;BME280;65651;53.154;17.916;2023-04-01T06:13:07;99181.76;;;6.64;87.08
76726;BME280;65651;53.154;17.916;2023-04-01T06:15:58;99185.92;;;6.68;86.73
76726;BME280;65651;53.154;17.916;2023-04-01T06:32:33;99200.08;;;6.99;86.48
76726;BME280;65651;53.154;17.916;2023-04-01T06:35:49;99201.38;;;7.04;86.33
76726;BME280;65651;53.154;17.916;2023-04-01T06:42:00;99209.09;;;7.14;86.43
76726;BME280;65651;53.154;17.916;2023-04-01T06:48:15;99211.92;;;7.17;86.30
76726;BME280;65651;53.154;17.916;2023-04-01T06:54:13;99219.34;;;7.18;86.71
76726;BME280;65651;53.154;17.916;2023-04-01T07:00:36;99225.94;;;7.20;86.58
76726;BME280;65651;53.154;17.916;2023-04-01T07:05:39;99230.73;;;7.22;86.22
76726;BME280;65651;53.154;17.916;2023-04-01T07:08:10;99232.84;;;7.26;86.30
76726;BME280;65651;53.154;17.916;2023-04-01T07:13:34;99244.39;;;7.30;86.13
76726;BME280;65651;53.154;17.916;2023-04-01T07:18:56;99250.90;;;7.22;86.04
76726;BME280;65651;53.154;17.916;2023-04-01T07:21:51;99253.14;;;7.19;86.02
76726;BME280;65651;53.154;17.916;2023-04-01T07:24:36;99255.82;;;7.21;86.13
76726;BME280;65651;53.154;17.916;2023-04-01T07:27:13;99252.50;;;7.20;85.88
76726;BME280;65651;53.154;17.916;2023-04-01T07:29:41;99255.09;;;7.18;85.92
76726;BME280;65651;53.154;17.916;2023-04-01T07:32:19;99255.02;;;7.18;85.32
76726;BME280;65651;53.154;17.916;2023-04-01T07:35:13;99257.56;;;7.22;85.31
76726;BME280;65651;53.154;17.916;2023-04-01T07:38:07;99259.45;;;7.24;85.52
76726;BME280;65651;53.154;17.916;2023-04-01T07:57:27;99291.91;;;7.46;84.87
76726;BME280;65651;53.154;17.916;2023-04-01T08:00:34;99292.98;;;7.47;85.00
76726;BME280;65651;53.154;17.916;2023-04-01T08:06:30;99310.36;;;7.46;85.04
76726;BME280;65651;53.154;17.916;2023-04-01T08:09:32;99310.14;;;7.38;84.73
76726;BME280;65651;53.154;17.916;2023-04-01T08:12:37;99314.48;;;7.38;85.02
76726;BME280;65651;53.154;17.916;2023-04-01T08:16:15;99319.48;;;7.30;84.46
76726;BME280;65651;53.154;17.916;2023-04-01T08:19:09;99323.32;;;7.27;84.63
76726;BME280;65651;53.154;17.916;2023-04-01T08:21:42;99328.64;;;7.32;84.57
76726;BME280;65651;53.154;17.916;2023-04-01T08:24:29;99334.20;;;7.37;84.53
76726;BME280;65651;53.154;17.916;2023-04-01T08:27:41;99330.63;;;7.48;84.77
76726;BME280;65651;53.154;17.916;2023-04-01T08:30:21;99336.44;;;7.57;84.50
76726;BME280;65651;53.154;17.916;2023-04-01T08:33:11;99337.92;;;7.70;84.52
76726;BME280;65651;53.154;17.916;2023-04-01T08:35:48;99340.77;;;7.80;84.03
76726;BME280;65651;53.154;17.916;2023-04-01T08:38:21;99338.69;;;7.90;84.03
76726;BME280;65651;53.154;17.916;2023-04-01T08:40:55;99345.04;;;7.99;83.81
76726;BME280;65651;53.154;17.916;2023-04-01T08:49:16;99350.02;;;8.15;83.16
76726;BME280;65651;53.154;17.916;2023-04-01T08:52:09;99353.00;;;8.19;83.62
76726;BME280;65651;53.154;17.916;2023-04-01T08:55:11;99355.41;;;8.16;83.25
76726;BME280;65651;53.154;17.916;2023-04-01T09:01:16;99357.81;;;8.25;83.44
76726;BME280;65651;53.154;17.916;2023-04-01T09:04:22;99359.93;;;8.39;83.44
76726;BME280;65651;53.154;17.916;2023-04-01T09:10:11;99366.25;;;8.47;83.48
76726;BME280;65651;53.154;17.916;2023-04-01T09:13:08;99370.92;;;8.45;83.55
76726;BME280;65651;53.154;17.916;2023-04-01T09:16:07;99369.20;;;8.40;83.46
76726;BME280;65651;53.154;17.916;2023-04-01T09:52:45;99414.98;;;8.63;82.00
76726;BME280;65651;53.154;17.916;2023-04-01T09:56:03;99413.85;;;8.66;82.00
76726;BME280;65651;53.154;17.916;2023-04-01T10:04:50;99421.45;;;8.76;81.88
76726;BME280;65651;53.154;17.916;2023-04-01T10:16:23;99434.52;;;8.90;81.47
76726;BME280;65651;53.154;17.916;2023-04-01T10:24:31;99437.67;;;8.95;81.55
76726;BME280;65651;53.154;17.916;2023-04-01T10:27:36;99438.33;;;8.87;81.36
76726;BME280;65651;53.154;17.916;2023-04-01T10:30:50;99442.79;;;8.74;81.47
76726;BME280;65651;53.154;17.916;2023-04-01T10:37:04;99454.02;;;8.59;81.12
76726;BME280;65651;53.154;17.916;2023-04-01T10:46:13;99456.88;;;8.54;81.09
76726;BME280;65651;53.154;17.916;2023-04-01T10:57:02;99463.77;;;8.79;81.02
76726;BME280;65651;53.154;17.916;2023-04-01T11:36:56;99513.42;;;8.07;80.39
76726;BME280;65651;53.154;17.916;2023-04-01T11:43:08;99523.57;;;8.06;80.35
76726;BME280;65651;53.154;17.916;2023-04-01T11:57:17;99539.88;;;8.18;79.76
76726;BME280;65651;53.154;17.916;2023-04-01T12:08:13;99545.30;;;8.08;79.55
76726;BME280;65651;53.154;17.916;2023-04-01T12:13:45;99542.70;;;8.15;79.37
76726;BME280;65651;53.154;17.916;2023-04-01T12:16:26;99545.90;;;8.22;79.35
76726;BME280;65651;53.154;17.916;2023-04-01T12:19:09;99551.23;;;8.32;79.19
76726;BME280;65651;53.154;17.916;2023-04-01T12:38:31;99580.35;;;8.43;78.91
76726;BME280;65651;53.154;17.916;2023-04-01T12:44:17;99581.81;;;8.40;78.49
76726;BME280;65651;53.154;17.916;2023-04-01T12:50:28;99593.80;;;8.55;78.36
76726;BME280;65651;53.154;17.916;2023-04-01T12:55:46;99595.94;;;8.71;78.48
76726;BME280;65651;53.154;17.916;2023-04-01T12:58:30;99598.30;;;8.76;78.19
76726;BME280;65651;53.154;17.916;2023-04-01T13:12:31;99621.52;;;8.78;77.61
76726;BME280;65651;53.154;17.916;2023-04-01T13:21:07;99629.52;;;8.80;77.56
76726;BME280;65651;53.154;17.916;2023-04-01T13:24:04;99632.70;;;8.82;77.28
76726;BME280;65651;53.154;17.916;2023-04-01T13:29:26;99635.99;;;8.67;76.84
76726;BME280;65651;53.154;17.916;2023-04-01T13:34:52;99640.38;;;8.54;76.69
76726;BME280;65651;53.154;17.916;2023-04-01T13:39:55;99639.64;;;8.53;76.61
76726;BME280;65651;53.154;17.916;2023-04-01T13:42:38;99645.20;;;8.49;76.55
76726;BME280;65651;53.154;17.916;2023-04-01T13:45:19;99644.17;;;8.47;76.82
76726;BME280;65651;53.154;17.916;2023-04-01T13:48:10;99651.98;;;8.44;76.59
76726;BME280;65651;53.154;17.916;2023-04-01T13:59:29;99666.38;;;8.20;76.34
76726;BME280;65651;53.154;17.916;2023-04-01T14:02:17;99672.19;;;8.10;76.49
76726;BME280;65651;53.154;17.916;2023-04-01T14:05:24;99678.36;;;8.00;76.77
76726;BME280;65651;53.154;17.916;2023-04-01T14:10:46;99690.27;;;7.76;76.00
76726;BME280;65651;53.154;17.916;2023-04-01T14:13:29;99690.25;;;7.65;76.02
76726;BME280;65651;53.154;17.916;2023-04-01T14:16:47;99691.29;;;7.60;76.47
76726;BME280;65651;53.154;17.916;2023-04-01T14:22:42;99702.19;;;7.56;76.25
76726;BME280;65651;53.154;17.916;2023-04-01T14:28:36;99708.98;;;7.49;76.12
76726;BME280;65651;53.154;17.916;2023-04-01T14:31:27;99714.70;;;7.43;76.10
76726;BME280;65651;53.154;17.916;2023-04-01T14:34:09;99714.11;;;7.35;76.08
76726;BME280;65651;53.154;17.916;2023-04-01T14:37:01;99717.80;;;7.30;76.30
76726;BME280;65651;53.154;17.916;2023-04-01T14:46:05;99732.56;;;7.13;75.99
76726;BME280;65651;53.154;17.916;2023-04-01T14:51:16;99731.89;;;7.13;76.22
76726;BME280;65651;53.154;17.916;2023-04-01T14:54:22;99741.44;;;7.17;76.11
76726;BME280;65651;53.154;17.916;2023-04-01T14:57:10;99740.08;;;7.13;76.11
76726;BME280;65651;53.154;17.916;2023-04-01T14:59:41;99746.44;;;7.08;76.15
76726;BME280;65651;53.154;17.916;2023-04-01T15:05:18;99756.02;;;6.95;75.63
76726;BME280;65651;53.154;17.916;2023-04-01T15:13:52;99766.52;;;6.74;75.91
76726;BME280;65651;53.154;17.916;2023-04-01T15:16:30;99770.52;;;6.70;76.16
76726;BME280;65651;53.154;17.916;2023-04-01T15:19:12;99777.88;;;6.65;76.07
76726;BME280;65651;53.154;17.916;2023-04-01T15:38:23;99810.70;;;6.31;76.28
76726;BME280;65651;53.154;17.916;2023-04-01T15:41:23;99811.30;;;6.28;76.46
76726;BME280;65651;53.154;17.916;2023-04-01T15:43:53;99818.70;;;6.25;76.65
76726;BME280;65651;53.154;17.916;2023-04-01T15:46:44;99824.77;;;6.23;76.64
76726;BME280;65651;53.154;17.916;2023-04-01T15:52:22;99832.48;;;6.00;76.38
76726;BME280;65651;53.154;17.916;2023-04-01T16:00:26;99843.23;;;5.85;76.58
76726;BME280;65651;53.154;17.916;2023-04-01T16:03:13;99841.84;;;5.79;76.53
76726;BME280;65651;53.154;17.916;2023-04-01T16:09:22;99851.30;;;5.72;76.67
76726;BME280;65651;53.154;17.916;2023-04-01T16:11:57;99853.93;;;5.66;76.75
76726;BME280;65651;53.154;17.916;2023-04-01T16:20:19;99867.61;;;5.56;76.92
76726;BME280;65651;53.154;17.916;2023-04-01T16:22:58;99873.27;;;5.59;77.19
76726;BME280;65651;53.154;17.916;2023-04-01T16:25:39;99874.05;;;5.62;77.23
76726;BME280;65651;53.154;17.916;2023-04-01T16:31:15;99889.90;;;5.60;77.17
76726;BME280;65651;53.154;17.916;2023-04-01T16:36:42;99896.55;;;5.53;77.38
76726;BME280;65651;53.154;17.916;2023-04-01T16:42:38;99904.23;;;5.41;77.47
76726;BME280;65651;53.154;17.916;2023-04-01T16:48:01;99918.75;;;5.24;77.61
76726;BME280;65651;53.154;17.916;2023-04-01T16:50:48;99923.02;;;5.18;77.64
76726;BME280;65651;53.154;17.916;2023-04-01T16:53:31;99927.89;;;5.15;77.87
76726;BME280;65651;53.154;17.916;2023-04-01T16:58:37;99943.89;;;5.07;77.94
76726;BME280;65651;53.154;17.916;2023-04-01T17:03:44;99945.77;;;5.01;78.01
76726;BME280;65651;53.154;17.916;2023-04-01T17:06:37;99955.30;;;4.96;77.99
76726;BME280;65651;53.154;17.916;2023-04-01T17:18:07;99971.25;;;4.86;78.49
76726;BME280;65651;53.154;17.916;2023-04-01T17:21:07;99971.04;;;4.84;78.29
76726;BME280;65651;53.154;17.916;2023-04-01T17:23:49;99975.71;;;4.81;78.59
76726;BME280;65651;53.154;17.916;2023-04-01T17:29:28;99979.50;;;4.76;78.45
76726;BME280;65651;53.154;17.916;2023-04-01T17:35:20;99988.65;;;4.75;78.35
76726;BME280;65651;53.154;17.916;2023-04-01T17:41:22;99997.58;;;4.76;78.59
76726;BME280;65651;53.154;17.916;2023-04-01T17:52:46;100023.35;;;4.61;78.88
76726;BME280;65651;53.154;17.916;2023-04-01T17:55:50;100032.42;;;4.54;79.06
76726;BME280;65651;53.154;17.916;2023-04-01T17:58:47;100038.78;;;4.48;79.16
76726;BME280;65651;53.154;17.916;2023-04-01T18:01:52;100040.52;;;4.46;79.20
76726;BME280;65651;53.154;17.916;2023-04-01T18:04:41;100043.88;;;4.42;79.31
76726;BME280;65651;53.154;17.916;2023-04-01T18:19:23;100077.34;;;4.07;79.80
76726;BME280;65651;53.154;17.916;2023-04-01T18:22:21;100079.86;;;4.00;79.84
76726;BME280;65651;53.154;17.916;2023-04-01T18:31:04;100092.34;;;3.88;80.16
76726;BME280;65651;53.154;17.916;2023-04-01T18:34:10;100098.96;;;3.82;80.24
76726;BME280;65651;53.154;17.916;2023-04-01T18:37:16;100102.98;;;3.78;80.40
76726;BME280;65651;53.154;17.916;2023-04-01T18:52:07;100124.09;;;3.57;80.83
76726;BME280;65651;53.154;17.916;2023-04-01T18:57:49;100130.95;;;3.53;81.01
76726;BME280;65651;53.154;17.916;2023-04-01T19:00:36;100135.69;;;3.49;81.36
76726;BME280;65651;53.154;17.916;2023-04-01T19:05:52;100140.56;;;3.43;81.63
76726;BME280;65651;53.154;17.916;2023-04-01T19:21:56;100160.63;;;3.43;81.71
76726;BME280;65651;53.154;17.916;2023-04-01T19:27:42;100171.95;;;3.41;81.77
76726;BME280;65651;53.154;17.916;2023-04-01T19:30:37;100179.68;;;3.37;82.09
76726;BME280;65651;53.154;17.916;2023-04-01T19:33:33;100183.13;;;3.34;82.08
76726;BME280;65651;53.154;17.916;2023-04-01T19:36:11;100189.02;;;3.31;82.28
76726;BME280;65651;53.154;17.916;2023-04-01T19:47:02;100197.91;;;3.13;82.56
76726;BME280;65651;53.154;17.916;2023-04-01T19:49:51;100197.02;;;3.08;82.59
76726;BME280;65651;53.154;17.916;2023-04-01T19:52:39;100204.86;;;3.05;82.44
76726;BME280;65651;53.154;17.916;2023-04-01T19:55:22;100206.60;;;3.00;82.44
76726;BME280;65651;53.154;17.916;2023-04-01T19:58:06;100210.99;;;2.99;82.62
76726;BME280;65651;53.154;17.916;2023-04-01T20:00:54;100212.48;;;2.97;82.77
76726;BME280;65651;53.154;17.916;2023-04-01T20:03:36;100215.73;;;2.97;82.77
76726;BME280;65651;53.154;17.916;2023-04-01T20:12:06;100224.65;;;2.93;82.54
76726;BME280;65651;53.154;17.916;2023-04-01T20:15:02;100230.98;;;2.94;82.59
76726;BME280;65651;53.154;17.916;2023-04-01T20:17:38;100232.35;;;2.94;82.67
76726;BME280;65651;53.154;17.916;2023-04-01T20:25:17;100244.29;;;2.93;82.85
76726;BME280;65651;53.154;17.916;2023-04-01T20:28:00;100244.60;;;2.94;82.63
76726;BME280;65651;53.154;17.916;2023-04-01T20:33:37;100256.16;;;2.96;82.70
76726;BME280;65651;53.154;17.916;2023-04-01T20:36:26;100254.66;;;2.95;82.56
76726;BME280;65651;53.154;17.916;2023-04-01T20:44:41;100258.84;;;2.99;82.51
76726;BME280;65651;53.154;17.916;2023-04-01T20:53:16;100271.43;;;2.99;82.53
76726;BME280;65651;53.154;17.916;2023-04-01T21:02:28;100274.36;;;2.97;82.08
76726;BME280;65651;53.154;17.916;2023-04-01T21:11:07;100283.20;;;2.92;81.92
76726;BME280;65651;53.154;17.916;2023-04-01T21:45:13;100315.05;;;2.93;82.17
76726;BME280;65651;53.154;17.916;2023-04-01T22:04:52;100332.30;;;2.90;81.97
76726;BME280;65651;53.154;17.916;2023-04-01T22:12:54;100335.00;;;2.92;82.02
76726;BME280;65651;53.154;17.916;2023-04-01T22:18:06;100341.89;;;2.87;82.06
76726;BME280;65651;53.154;17.916;2023-04-01T22:26:34;100354.39;;;2.83;81.99
76726;BME280;65651;53.154;17.916;2023-04-01T22:29:17;100357.01;;;2.81;82.21
76726;BME280;65651;53.154;17.916;2023-04-01T22:34:49;100359.92;;;2.80;81.97
76726;BME280;65651;53.154;17.916;2023-04-01T22:37:35;100363.64;;;2.80;81.99
76726;BME280;65651;53.154;17.916;2023-04-01T22:40:35;100364.64;;;2.81;82.09
76726;BME280;65651;53.154;17.916;2023-04-01T22:43:11;100369.88;;;2.82;82.10
76726;BME280;65651;53.154;17.916;2023-04-01T22:46:01;100365.21;;;2.83;82.08
76726;BME280;65651;53.154;17.916;2023-04-01T22:48:45;100376.80;;;2.87;82.30
76726;BME280;65651;53.154;17.916;2023-04-01T22:51:20;100376.39;;;2.88;82.13
76726;BME280;65651;53.154;17.916;2023-04-01T22:56:23;100385.02;;;2.86;81.97
76726;BME280;65651;53.154;17.916;2023-04-01T22:59:08;100386.41;;;2.84;82.31
76726;BME280;65651;53.154;17.916;2023-04-01T23:01:44;100386.50;;;2.83;82.30
76726;BME280;65651;53.154;17.916;2023-04-01T23:04:17;100388.22;;;2.83;82.10
76726;BME280;65651;53.154;17.916;2023-04-01T23:06:55;100389.95;;;2.84;82.05
76726;BME280;65651;53.154;17.916;2023-04-01T23:09:29;100391.02;;;2.84;82.18
76726;BME280;65651;53.154;17.916;2023-04-01T23:12:18;100390.33;;;2.84;81.83
76726;BME280;65651;53.154;17.916;2023-04-01T23:14:54;100394.92;;;2.84;82.09
76726;BME280;65651;53.154;17.916;2023-04-01T23:20:09;100405.02;;;2.84;81.78